KLNK

Lincoln Airport

Airport
ICAO code
KLNK
Summary
ICAO Region
NAM
ICAO Territory
Location

Lincoln, Nebraska,

Coordinates
40° 50' 49" N , 96° 45' 19" W
KCC
Airport LOS
Parallel Runway Operation
Metar
Observation
KLNK 070854Z AUTO 02009KT 10SM BKN095 09/00 A3046 RMK AO2 RAE0758 SLP312 P0000 60000 T00890000 53008
Station
Lincoln, Lincoln Municipal Airport
Date/Time
2022-10-07 08:54:00
Wind direction
20°
Wind speed
09 kts
Lowest cloud amount
broken clouds
Temperature
8.9°C
Dew point
0°C
Humidity
53%
Weather condition
n/a

Description

Lincoln Airport, formerly known as Lincoln Municipal Airport, is a joint public/military (ANG) use airport located 7 km northwest of the central business district of Lincoln, which is located in Lancaster County, Nebraska.

Climatology

Humid continental climate (Köppen climate classification Dfa) - characterized by four seasons: cold, windy, snowy winters, mild springs, hot, humid summers, and crisp and relatively short autumns. Precipitation reaches its lowest in January and February and peaks in summer and latter half of spring.

Runways

Designator Length Width Surface Rops
17/35 1646 30 PEM Yes/Yes
14/32 2636 46 PEM Yes/Yes
18/36 3932 61 PEM Yes/Yes

Airport map

Aerial View

SKYbrary Partners:

Safety knowledge contributed by: